AIC2767 VIDP-VECC
Flight info
| Callsign | AIC2767 |
|---|---|
| Flight time | 1h 44m |
| Altitude | 37000 |
| Route | ALI6C ALI G452 LKN W45 PPT W52 SEGMO SEGMO2G |
| Aircraft | A21N/M-SDE3FGHIRWY/LB1 |
Departure
| Time | 2026-05-06 08:09 |
|---|---|
| Airport | Indira Gandhi International Airport (VIDP) |
Arrival
| Time | 2026-05-06 09:53 |
|---|---|
| Airport | Netaji Subhash Chandra Bose International Airport (VECC) |
| Time | Latitude | Longitude | Altitude | Speed | Heading |
|---|---|---|---|---|---|
| 2026-05-06 07:39 | 28.55106 | 77.08914 | 785 ft | 0 kts | 241° |
| 2026-05-06 07:50 | 28.55108 | 77.08919 | 785 ft | 2 kts | 241° |
| 2026-05-06 07:50 | 28.55113 | 77.08928 | 785 ft | 2 kts | 240° |
| 2026-05-06 07:51 | 28.55125 | 77.08942 | 785 ft | 2 kts | 210° |
| 2026-05-06 07:51 | 28.55141 | 77.08949 | 785 ft | 2 kts | 186° |
| 2026-05-06 07:51 | 28.55157 | 77.08948 | 785 ft | 2 kts | 164° |
| 2026-05-06 07:51 | 28.55167 | 77.08944 | 785 ft | 1 kts | 149° |
| 2026-05-06 07:52 | 28.55157 | 77.08950 | 785 ft | 4 kts | 149° |
| 2026-05-06 07:52 | 28.55146 | 77.08958 | 785 ft | 1 kts | 148° |
| 2026-05-06 07:52 | 28.55143 | 77.08960 | 785 ft | 0 kts | 149° |
| 2026-05-06 07:54 | 28.55142 | 77.08961 | 785 ft | 0 kts | 149° |
| 2026-05-06 07:55 | 28.55140 | 77.08962 | 785 ft | 0 kts | 149° |
| 2026-05-06 07:55 | 28.55129 | 77.08971 | 785 ft | 2 kts | 143° |
| 2026-05-06 07:55 | 28.55110 | 77.08991 | 785 ft | 4 kts | 133° |
| 2026-05-06 07:55 | 28.55080 | 77.09020 | 785 ft | 6 kts | 147° |
| 2026-05-06 07:56 | 28.55033 | 77.09052 | 785 ft | 8 kts | 149° |
| 2026-05-06 07:56 | 28.54978 | 77.09088 | 785 ft | 5 kts | 150° |
| 2026-05-06 07:56 | 28.54960 | 77.09100 | 785 ft | 2 kts | 149° |
| 2026-05-06 07:56 | 28.54946 | 77.09109 | 785 ft | 2 kts | 149° |
| 2026-05-06 07:57 | 28.54935 | 77.09117 | 785 ft | 1 kts | 149° |
| 2026-05-06 07:57 | 28.54919 | 77.09128 | 785 ft | 3 kts | 150° |
| 2026-05-06 07:57 | 28.54888 | 77.09148 | 785 ft | 6 kts | 149° |
| 2026-05-06 07:57 | 28.54846 | 77.09178 | 785 ft | 8 kts | 148° |
| 2026-05-06 07:58 | 28.54793 | 77.09222 | 785 ft | 10 kts | 126° |
| 2026-05-06 07:58 | 28.54771 | 77.09309 | 785 ft | 12 kts | 103° |
| 2026-05-06 07:58 | 28.54747 | 77.09412 | 785 ft | 14 kts | 105° |
| 2026-05-06 07:58 | 28.54721 | 77.09526 | 785 ft | 15 kts | 105° |
| 2026-05-06 07:59 | 28.54691 | 77.09651 | 785 ft | 16 kts | 105° |
| 2026-05-06 07:59 | 28.54661 | 77.09781 | 785 ft | 16 kts | 104° |
| 2026-05-06 07:59 | 28.54634 | 77.09901 | 785 ft | 14 kts | 104° |
| 2026-05-06 07:59 | 28.54609 | 77.10009 | 785 ft | 13 kts | 105° |
| 2026-05-06 08:00 | 28.54584 | 77.10111 | 785 ft | 12 kts | 105° |
| 2026-05-06 08:00 | 28.54563 | 77.10203 | 785 ft | 11 kts | 104° |
| 2026-05-06 08:00 | 28.54544 | 77.10288 | 785 ft | 10 kts | 105° |
| 2026-05-06 08:00 | 28.54525 | 77.10368 | 785 ft | 9 kts | 105° |
| 2026-05-06 08:01 | 28.54506 | 77.10443 | 785 ft | 9 kts | 105° |
| 2026-05-06 08:01 | 28.54487 | 77.10521 | 785 ft | 10 kts | 104° |
| 2026-05-06 08:01 | 28.54453 | 77.10577 | 785 ft | 4 kts | 149° |
| 2026-05-06 08:01 | 28.54420 | 77.10583 | 785 ft | 5 kts | 194° |
| 2026-05-06 08:02 | 28.54386 | 77.10564 | 785 ft | 5 kts | 207° |
| 2026-05-06 08:02 | 28.54382 | 77.10561 | 785 ft | 0 kts | 207° |
| 2026-05-06 08:04 | 28.54378 | 77.10559 | 785 ft | 0 kts | 207° |
| 2026-05-06 08:04 | 28.54370 | 77.10555 | 785 ft | 1 kts | 203° |
| 2026-05-06 08:04 | 28.54356 | 77.10549 | 785 ft | 3 kts | 198° |
| 2026-05-06 08:04 | 28.54327 | 77.10539 | 785 ft | 5 kts | 193° |
| 2026-05-06 08:05 | 28.54282 | 77.10528 | 785 ft | 7 kts | 193° |
| 2026-05-06 08:05 | 28.54223 | 77.10513 | 785 ft | 9 kts | 194° |
| 2026-05-06 08:05 | 28.54159 | 77.10494 | 785 ft | 9 kts | 194° |
| 2026-05-06 08:05 | 28.54092 | 77.10474 | 785 ft | 10 kts | 194° |
| 2026-05-06 08:06 | 28.54022 | 77.10456 | 785 ft | 10 kts | 193° |
| 2026-05-06 08:06 | 28.53949 | 77.10436 | 785 ft | 10 kts | 194° |
| 2026-05-06 08:06 | 28.53893 | 77.10393 | 785 ft | 8 kts | 251° |
| 2026-05-06 08:06 | 28.53904 | 77.10326 | 785 ft | 8 kts | 284° |
| 2026-05-06 08:07 | 28.53919 | 77.10256 | 785 ft | 9 kts | 283° |
| 2026-05-06 08:07 | 28.53935 | 77.10184 | 785 ft | 9 kts | 284° |
| 2026-05-06 08:07 | 28.53951 | 77.10108 | 785 ft | 10 kts | 284° |
| 2026-05-06 08:07 | 28.53973 | 77.10012 | 785 ft | 19 kts | 283° |
| 2026-05-06 08:08 | 28.54041 | 77.09691 | 785 ft | 74 kts | 284° |
| 2026-05-06 08:08 | 28.54221 | 77.08865 | 785 ft | 136 kts | 284° |
| 2026-05-06 08:08 | 28.54497 | 77.07607 | 813 ft | 182 kts | 285° |
| 2026-05-06 08:08 | 28.54826 | 77.06140 | 1267 ft | 191 kts | 285° |
| 2026-05-06 08:09 | 28.55137 | 77.04619 | 1757 ft | 202 kts | 283° |
| 2026-05-06 08:09 | 28.55109 | 77.02979 | 2340 ft | 211 kts | 249° |
| 2026-05-06 08:09 | 28.54097 | 77.01787 | 2954 ft | 215 kts | 204° |
| 2026-05-06 08:09 | 28.52548 | 77.01444 | 3281 ft | 231 kts | 187° |
| 2026-05-06 08:10 | 28.50876 | 77.01231 | 3646 ft | 247 kts | 187° |
| 2026-05-06 08:10 | 28.49056 | 77.00935 | 3973 ft | 267 kts | 190° |
| 2026-05-06 08:10 | 28.47087 | 77.00542 | 4394 ft | 284 kts | 191° |
| 2026-05-06 08:10 | 28.44996 | 77.00081 | 4890 ft | 299 kts | 188° |
| 2026-05-06 08:11 | 28.42858 | 77.00457 | 5744 ft | 297 kts | 150° |
| 2026-05-06 08:11 | 28.41330 | 77.02160 | 6821 ft | 285 kts | 119° |
| 2026-05-06 08:11 | 28.40350 | 77.04323 | 7548 ft | 290 kts | 115° |
| 2026-05-06 08:11 | 28.39398 | 77.06506 | 8237 ft | 296 kts | 116° |
| 2026-05-06 08:12 | 28.38434 | 77.08620 | 8968 ft | 299 kts | 117° |
| 2026-05-06 08:12 | 28.37445 | 77.10706 | 9689 ft | 302 kts | 117° |
| 2026-05-06 08:12 | 28.36430 | 77.12796 | 10336 ft | 308 kts | 118° |
| 2026-05-06 08:12 | 28.35365 | 77.14957 | 10674 ft | 324 kts | 118° |
| 2026-05-06 08:13 | 28.34216 | 77.17270 | 10979 ft | 341 kts | 118° |
| 2026-05-06 08:13 | 28.32931 | 77.19838 | 11290 ft | 359 kts | 118° |
| 2026-05-06 08:13 | 28.31596 | 77.22499 | 11586 ft | 375 kts | 118° |
| 2026-05-06 08:13 | 28.30212 | 77.25243 | 11861 ft | 391 kts | 118° |
| 2026-05-06 08:14 | 28.28795 | 77.28050 | 12253 ft | 401 kts | 118° |
| 2026-05-06 08:14 | 28.27370 | 77.30868 | 12853 ft | 405 kts | 118° |
| 2026-05-06 08:14 | 28.25884 | 77.33804 | 13471 ft | 409 kts | 118° |
| 2026-05-06 08:14 | 28.24387 | 77.36764 | 14062 ft | 413 kts | 118° |
| 2026-05-06 08:15 | 28.22892 | 77.39716 | 14633 ft | 418 kts | 118° |
| 2026-05-06 08:15 | 28.21436 | 77.42590 | 15171 ft | 422 kts | 118° |
| 2026-05-06 08:15 | 28.19938 | 77.45545 | 15716 ft | 426 kts | 118° |
| 2026-05-06 08:15 | 28.18400 | 77.48579 | 16261 ft | 430 kts | 118° |
| 2026-05-06 08:16 | 28.16878 | 77.51578 | 16784 ft | 435 kts | 118° |
| 2026-05-06 08:16 | 28.15383 | 77.54522 | 17285 ft | 439 kts | 118° |
| 2026-05-06 08:16 | 28.13849 | 77.57538 | 17788 ft | 443 kts | 118° |
| 2026-05-06 08:16 | 28.12301 | 77.60581 | 18287 ft | 447 kts | 118° |
| 2026-05-06 08:17 | 28.10743 | 77.63642 | 18769 ft | 451 kts | 118° |
| 2026-05-06 08:17 | 28.09158 | 77.66753 | 19246 ft | 455 kts | 119° |
| 2026-05-06 08:17 | 28.07493 | 77.70019 | 19733 ft | 459 kts | 119° |
| 2026-05-06 08:17 | 28.05833 | 77.73270 | 20206 ft | 463 kts | 119° |
| 2026-05-06 08:18 | 28.04199 | 77.76471 | 20663 ft | 467 kts | 119° |
| 2026-05-06 08:18 | 28.02467 | 77.79860 | 21137 ft | 471 kts | 119° |
| 2026-05-06 08:18 | 28.00820 | 77.83079 | 21576 ft | 475 kts | 119° |
| 2026-05-06 08:18 | 27.99113 | 77.86412 | 22017 ft | 479 kts | 119° |
| 2026-05-06 08:19 | 27.97312 | 77.89929 | 22472 ft | 483 kts | 119° |
| 2026-05-06 08:19 | 27.95614 | 77.93238 | 22895 ft | 486 kts | 119° |
| 2026-05-06 08:19 | 27.93901 | 77.96574 | 23314 ft | 489 kts | 119° |
| 2026-05-06 08:19 | 27.92061 | 78.00154 | 23735 ft | 493 kts | 119° |
| 2026-05-06 08:20 | 27.90195 | 78.03783 | 24154 ft | 497 kts | 120° |
| 2026-05-06 08:20 | 27.88371 | 78.07325 | 24551 ft | 500 kts | 120° |
| 2026-05-06 08:20 | 27.86596 | 78.10768 | 24970 ft | 502 kts | 120° |
| 2026-05-06 08:20 | 27.84806 | 78.14243 | 25509 ft | 501 kts | 120° |
| 2026-05-06 08:21 | 27.83143 | 78.17698 | 26019 ft | 500 kts | 116° |
| 2026-05-06 08:21 | 27.81636 | 78.21280 | 26504 ft | 499 kts | 113° |
| 2026-05-06 08:21 | 27.80270 | 78.24870 | 26965 ft | 499 kts | 112° |
| 2026-05-06 08:21 | 27.78890 | 78.28562 | 27409 ft | 499 kts | 112° |
| 2026-05-06 08:22 | 27.77518 | 78.32243 | 27840 ft | 499 kts | 112° |
| 2026-05-06 08:22 | 27.76111 | 78.36014 | 28290 ft | 499 kts | 112° |
| 2026-05-06 08:22 | 27.74647 | 78.39919 | 28755 ft | 499 kts | 112° |
| 2026-05-06 08:22 | 27.73189 | 78.43803 | 29202 ft | 499 kts | 113° |
| 2026-05-06 08:23 | 27.71767 | 78.47584 | 29637 ft | 498 kts | 113° |
| 2026-05-06 08:23 | 27.70377 | 78.51272 | 30057 ft | 498 kts | 113° |
| 2026-05-06 08:23 | 27.68979 | 78.54976 | 30472 ft | 497 kts | 113° |
| 2026-05-06 08:23 | 27.67597 | 78.58634 | 30862 ft | 497 kts | 113° |
| 2026-05-06 08:24 | 27.66191 | 78.62351 | 31258 ft | 497 kts | 114° |
| 2026-05-06 08:24 | 27.64756 | 78.66143 | 31637 ft | 497 kts | 114° |
| 2026-05-06 08:24 | 27.63340 | 78.69885 | 31996 ft | 496 kts | 114° |
| 2026-05-06 08:24 | 27.61936 | 78.73588 | 32353 ft | 496 kts | 114° |
| 2026-05-06 08:25 | 27.60531 | 78.77287 | 32689 ft | 495 kts | 115° |
| 2026-05-06 08:25 | 27.59167 | 78.80878 | 33014 ft | 495 kts | 115° |
| 2026-05-06 08:25 | 27.57831 | 78.84394 | 33322 ft | 494 kts | 115° |
| 2026-05-06 08:25 | 27.56457 | 78.88003 | 33623 ft | 494 kts | 115° |
| 2026-05-06 08:26 | 27.55088 | 78.91595 | 33913 ft | 493 kts | 115° |
| 2026-05-06 08:26 | 27.53704 | 78.95224 | 34206 ft | 493 kts | 115° |
| 2026-05-06 08:26 | 27.52286 | 78.98936 | 34501 ft | 492 kts | 115° |
| 2026-05-06 08:26 | 27.50886 | 79.02599 | 34796 ft | 491 kts | 115° |
| 2026-05-06 08:27 | 27.49517 | 79.06177 | 35064 ft | 490 kts | 115° |
| 2026-05-06 08:27 | 27.48171 | 79.09695 | 35297 ft | 490 kts | 116° |
| 2026-05-06 08:27 | 27.46818 | 79.13224 | 35502 ft | 491 kts | 116° |
| 2026-05-06 08:27 | 27.45474 | 79.16727 | 35702 ft | 491 kts | 116° |
| 2026-05-06 08:28 | 27.44119 | 79.20261 | 35895 ft | 491 kts | 116° |
| 2026-05-06 08:28 | 27.42769 | 79.23778 | 36085 ft | 492 kts | 116° |
| 2026-05-06 08:28 | 27.41412 | 79.27305 | 36269 ft | 492 kts | 116° |
| 2026-05-06 08:28 | 27.40049 | 79.30842 | 36418 ft | 493 kts | 116° |
| 2026-05-06 08:29 | 27.38683 | 79.34387 | 36546 ft | 494 kts | 116° |
| 2026-05-06 08:29 | 27.37267 | 79.38056 | 36679 ft | 496 kts | 116° |
| 2026-05-06 08:29 | 27.35849 | 79.41733 | 36808 ft | 497 kts | 116° |
| 2026-05-06 08:29 | 27.34427 | 79.45416 | 36815 ft | 497 kts | 116° |
| 2026-05-06 08:30 | 27.31544 | 79.52770 | 36819 ft | 497 kts | 116° |
| 2026-05-06 08:30 | 27.28585 | 79.60129 | 36820 ft | 497 kts | 116° |
| 2026-05-06 08:31 | 27.25740 | 79.67197 | 36817 ft | 497 kts | 117° |
| 2026-05-06 08:31 | 27.22867 | 79.74336 | 36819 ft | 496 kts | 117° |
| 2026-05-06 08:32 | 27.19892 | 79.81711 | 36818 ft | 496 kts | 117° |
| 2026-05-06 08:32 | 27.16934 | 79.89044 | 36820 ft | 497 kts | 117° |
| 2026-05-06 08:33 | 27.13990 | 79.96325 | 36820 ft | 496 kts | 117° |
| 2026-05-06 08:33 | 27.11076 | 80.03516 | 36821 ft | 496 kts | 117° |
| 2026-05-06 08:34 | 27.06656 | 80.14401 | 36820 ft | 497 kts | 117° |
| 2026-05-06 08:35 | 27.03699 | 80.21668 | 36820 ft | 496 kts | 117° |
| 2026-05-06 08:35 | 27.00742 | 80.28923 | 36821 ft | 495 kts | 117° |
| 2026-05-06 08:36 | 26.97841 | 80.36027 | 36822 ft | 493 kts | 117° |
| 2026-05-06 08:36 | 26.94928 | 80.43147 | 36821 ft | 490 kts | 117° |
| 2026-05-06 08:37 | 26.92010 | 80.50266 | 36821 ft | 487 kts | 116° |
| 2026-05-06 08:37 | 26.89097 | 80.57362 | 36821 ft | 485 kts | 116° |
| 2026-05-06 08:38 | 26.86242 | 80.64304 | 36820 ft | 484 kts | 116° |
| 2026-05-06 08:38 | 26.83331 | 80.71372 | 36820 ft | 483 kts | 117° |
| 2026-05-06 08:39 | 26.80447 | 80.78362 | 36820 ft | 483 kts | 117° |
| 2026-05-06 08:39 | 26.77559 | 80.85350 | 36820 ft | 483 kts | 116° |
| 2026-05-06 08:40 | 26.75034 | 80.92574 | 36820 ft | 485 kts | 109° |
| 2026-05-06 08:40 | 26.73061 | 80.99997 | 36820 ft | 485 kts | 107° |
| 2026-05-06 08:41 | 26.71100 | 81.07538 | 36820 ft | 485 kts | 108° |
| 2026-05-06 08:41 | 26.69177 | 81.14868 | 36820 ft | 484 kts | 108° |
| 2026-05-06 08:42 | 26.67230 | 81.22247 | 36820 ft | 484 kts | 108° |
| 2026-05-06 08:42 | 26.65255 | 81.29703 | 36820 ft | 484 kts | 108° |
| 2026-05-06 08:43 | 26.63308 | 81.37041 | 36820 ft | 484 kts | 108° |
| 2026-05-06 08:43 | 26.61371 | 81.44324 | 36820 ft | 484 kts | 108° |
| 2026-05-06 08:44 | 26.59386 | 81.51768 | 36820 ft | 484 kts | 108° |
| 2026-05-06 08:44 | 26.57414 | 81.59146 | 36820 ft | 484 kts | 108° |
| 2026-05-06 08:45 | 26.55424 | 81.66574 | 36818 ft | 484 kts | 108° |
| 2026-05-06 08:45 | 26.53440 | 81.73966 | 36820 ft | 484 kts | 108° |
| 2026-05-06 08:46 | 26.51438 | 81.81404 | 36820 ft | 484 kts | 108° |
| 2026-05-06 08:46 | 26.49456 | 81.88753 | 36820 ft | 484 kts | 108° |
| 2026-05-06 08:47 | 26.47453 | 81.96165 | 36820 ft | 484 kts | 108° |
| 2026-05-06 08:47 | 26.45449 | 82.03562 | 36820 ft | 484 kts | 108° |
| 2026-05-06 08:48 | 26.43449 | 82.10930 | 36820 ft | 484 kts | 108° |
| 2026-05-06 08:48 | 26.41422 | 82.18376 | 36820 ft | 484 kts | 108° |
| 2026-05-06 08:49 | 26.39412 | 82.25746 | 36820 ft | 484 kts | 108° |
| 2026-05-06 08:49 | 26.37390 | 82.33144 | 36820 ft | 484 kts | 108° |
| 2026-05-06 08:50 | 26.35429 | 82.40301 | 36820 ft | 484 kts | 108° |
| 2026-05-06 08:50 | 26.33455 | 82.47491 | 36820 ft | 484 kts | 108° |
| 2026-05-06 08:51 | 26.31444 | 82.54803 | 36820 ft | 484 kts | 108° |
| 2026-05-06 08:51 | 26.29422 | 82.62131 | 36822 ft | 490 kts | 108° |
| 2026-05-06 08:52 | 26.27393 | 82.69474 | 36809 ft | 497 kts | 109° |
| 2026-05-06 08:52 | 26.25346 | 82.76864 | 36799 ft | 500 kts | 108° |
| 2026-05-06 08:53 | 26.23237 | 82.84463 | 36794 ft | 501 kts | 109° |
| 2026-05-06 08:53 | 26.21137 | 82.92018 | 36792 ft | 500 kts | 109° |
| 2026-05-06 08:54 | 26.19034 | 82.99558 | 36792 ft | 500 kts | 109° |
| 2026-05-06 08:54 | 26.16921 | 83.07120 | 36792 ft | 499 kts | 109° |
| 2026-05-06 08:55 | 26.14815 | 83.14656 | 36792 ft | 499 kts | 109° |
| 2026-05-06 08:55 | 26.12735 | 83.22179 | 36792 ft | 499 kts | 108° |
| 2026-05-06 08:56 | 26.10672 | 83.29621 | 36792 ft | 499 kts | 108° |
| 2026-05-06 08:56 | 26.08628 | 83.36970 | 36792 ft | 499 kts | 109° |
| 2026-05-06 08:57 | 26.06573 | 83.44340 | 36792 ft | 499 kts | 109° |
| 2026-05-06 08:57 | 26.04531 | 83.51647 | 36792 ft | 499 kts | 109° |
| 2026-05-06 08:58 | 26.02445 | 83.59094 | 36792 ft | 499 kts | 109° |
| 2026-05-06 08:58 | 26.00380 | 83.66403 | 36791 ft | 499 kts | 109° |
| 2026-05-06 08:59 | 25.98274 | 83.73828 | 36791 ft | 499 kts | 109° |
| 2026-05-06 08:59 | 25.96185 | 83.81179 | 36791 ft | 499 kts | 109° |
| 2026-05-06 09:00 | 25.94079 | 83.88580 | 36792 ft | 499 kts | 109° |
| 2026-05-06 09:00 | 25.91968 | 83.95982 | 36792 ft | 499 kts | 109° |
| 2026-05-06 09:01 | 25.89848 | 84.03395 | 36792 ft | 499 kts | 109° |
| 2026-05-06 09:01 | 25.87736 | 84.10770 | 36792 ft | 499 kts | 109° |
| 2026-05-06 09:02 | 25.85616 | 84.18153 | 36792 ft | 499 kts | 109° |
| 2026-05-06 09:02 | 25.83469 | 84.25615 | 36792 ft | 499 kts | 109° |
| 2026-05-06 09:03 | 25.81321 | 84.33067 | 36792 ft | 499 kts | 109° |
| 2026-05-06 09:03 | 25.79159 | 84.40549 | 36792 ft | 499 kts | 109° |
| 2026-05-06 09:04 | 25.76993 | 84.48030 | 36792 ft | 499 kts | 109° |
| 2026-05-06 09:04 | 25.74853 | 84.55407 | 36792 ft | 499 kts | 109° |
| 2026-05-06 09:05 | 25.72708 | 84.62785 | 36792 ft | 499 kts | 109° |
| 2026-05-06 09:05 | 25.70548 | 84.70197 | 36791 ft | 499 kts | 110° |
| 2026-05-06 09:06 | 25.68404 | 84.77541 | 36792 ft | 499 kts | 110° |
| 2026-05-06 09:06 | 25.66245 | 84.84922 | 36792 ft | 499 kts | 110° |
| 2026-05-06 09:07 | 25.64086 | 84.92283 | 36833 ft | 500 kts | 110° |
| 2026-05-06 09:07 | 25.61880 | 84.99689 | 36907 ft | 499 kts | 112° |
| 2026-05-06 09:08 | 25.59054 | 85.06715 | 36949 ft | 495 kts | 121° |
| 2026-05-06 09:08 | 25.55372 | 85.13094 | 36965 ft | 490 kts | 130° |
| 2026-05-06 09:09 | 25.50886 | 85.18818 | 36963 ft | 486 kts | 137° |
| 2026-05-06 09:09 | 25.46137 | 85.24215 | 36949 ft | 486 kts | 137° |
| 2026-05-06 09:10 | 25.41366 | 85.29642 | 36929 ft | 486 kts | 137° |
| 2026-05-06 09:10 | 25.36590 | 85.35098 | 36914 ft | 486 kts | 137° |
| 2026-05-06 09:11 | 25.31812 | 85.40559 | 36907 ft | 486 kts | 137° |
| 2026-05-06 09:11 | 25.27110 | 85.45931 | 36903 ft | 486 kts | 137° |
| 2026-05-06 09:12 | 25.22429 | 85.51271 | 36902 ft | 486 kts | 137° |
| 2026-05-06 09:12 | 25.17681 | 85.56681 | 36902 ft | 486 kts | 137° |
| 2026-05-06 09:13 | 25.12920 | 85.62100 | 36902 ft | 486 kts | 137° |
| 2026-05-06 09:13 | 25.08176 | 85.67490 | 36901 ft | 485 kts | 137° |
| 2026-05-06 09:14 | 25.03455 | 85.72913 | 36899 ft | 477 kts | 136° |
| 2026-05-06 09:14 | 24.98731 | 85.78405 | 36901 ft | 464 kts | 135° |
| 2026-05-06 09:15 | 24.93979 | 85.83915 | 36902 ft | 461 kts | 135° |
| 2026-05-06 09:15 | 24.89255 | 85.89385 | 36901 ft | 461 kts | 135° |
| 2026-05-06 09:16 | 24.84644 | 85.94714 | 36902 ft | 461 kts | 135° |
| 2026-05-06 09:16 | 24.80036 | 86.00030 | 36902 ft | 461 kts | 135° |
| 2026-05-06 09:17 | 24.75455 | 86.05312 | 36901 ft | 461 kts | 135° |
| 2026-05-06 09:17 | 24.70908 | 86.10545 | 36901 ft | 461 kts | 135° |
| 2026-05-06 09:18 | 24.66393 | 86.15737 | 36901 ft | 461 kts | 135° |
| 2026-05-06 09:18 | 24.61821 | 86.20989 | 36901 ft | 461 kts | 135° |
| 2026-05-06 09:19 | 24.57232 | 86.26253 | 36901 ft | 461 kts | 135° |
| 2026-05-06 09:19 | 24.52678 | 86.31473 | 36901 ft | 461 kts | 135° |
| 2026-05-06 09:20 | 24.48044 | 86.36777 | 36902 ft | 461 kts | 135° |
| 2026-05-06 09:20 | 24.43422 | 86.42062 | 36902 ft | 461 kts | 135° |
| 2026-05-06 09:21 | 24.38858 | 86.47276 | 36902 ft | 461 kts | 135° |
| 2026-05-06 09:21 | 24.34241 | 86.52544 | 36902 ft | 461 kts | 135° |
| 2026-05-06 09:22 | 24.29670 | 86.57754 | 36890 ft | 461 kts | 135° |
| 2026-05-06 09:22 | 24.25022 | 86.63046 | 36835 ft | 461 kts | 135° |
| 2026-05-06 09:23 | 24.20484 | 86.68263 | 36795 ft | 461 kts | 135° |
| 2026-05-06 09:23 | 24.16109 | 86.73314 | 36775 ft | 462 kts | 134° |
| 2026-05-06 09:24 | 24.11970 | 86.78839 | 36767 ft | 463 kts | 127° |
| 2026-05-06 09:24 | 24.08150 | 86.85037 | 36766 ft | 464 kts | 125° |
| 2026-05-06 09:25 | 24.04433 | 86.91209 | 36765 ft | 464 kts | 125° |
| 2026-05-06 09:25 | 24.00898 | 86.97060 | 36765 ft | 463 kts | 125° |
| 2026-05-06 09:26 | 23.97345 | 87.02923 | 36765 ft | 463 kts | 125° |
| 2026-05-06 09:26 | 23.93805 | 87.08755 | 36765 ft | 462 kts | 125° |
| 2026-05-06 09:27 | 23.90252 | 87.14599 | 36765 ft | 462 kts | 125° |
| 2026-05-06 09:27 | 23.86694 | 87.20445 | 36765 ft | 462 kts | 125° |
| 2026-05-06 09:28 | 23.83052 | 87.26420 | 36765 ft | 462 kts | 125° |
| 2026-05-06 09:28 | 23.79368 | 87.32460 | 36765 ft | 462 kts | 125° |
| 2026-05-06 09:29 | 23.75630 | 87.38579 | 36765 ft | 462 kts | 125° |
| 2026-05-06 09:29 | 23.71888 | 87.44700 | 36765 ft | 462 kts | 125° |
| 2026-05-06 09:30 | 23.68173 | 87.50766 | 36760 ft | 461 kts | 125° |
| 2026-05-06 09:30 | 23.66291 | 87.53838 | 36445 ft | 461 kts | 125° |
| 2026-05-06 09:30 | 23.64342 | 87.57016 | 35643 ft | 465 kts | 125° |
| 2026-05-06 09:30 | 23.62378 | 87.60216 | 34656 ft | 471 kts | 125° |
| 2026-05-06 09:31 | 23.60573 | 87.63155 | 33767 ft | 475 kts | 125° |
| 2026-05-06 09:31 | 23.58704 | 87.66197 | 32888 ft | 478 kts | 126° |
| 2026-05-06 09:31 | 23.56726 | 87.69415 | 31970 ft | 480 kts | 126° |
| 2026-05-06 09:31 | 23.54772 | 87.72591 | 31056 ft | 482 kts | 126° |
| 2026-05-06 09:32 | 23.52868 | 87.75687 | 30148 ft | 483 kts | 126° |
| 2026-05-06 09:32 | 23.51015 | 87.78696 | 29249 ft | 485 kts | 126° |
| 2026-05-06 09:32 | 23.49139 | 87.81740 | 28321 ft | 486 kts | 125° |
| 2026-05-06 09:32 | 23.47258 | 87.84791 | 27357 ft | 487 kts | 125° |
| 2026-05-06 09:33 | 23.45295 | 87.87972 | 26317 ft | 489 kts | 125° |
| 2026-05-06 09:33 | 23.43260 | 87.91270 | 25205 ft | 491 kts | 125° |
| 2026-05-06 09:33 | 23.41268 | 87.94493 | 24096 ft | 493 kts | 125° |
| 2026-05-06 09:33 | 23.39186 | 87.97730 | 23067 ft | 490 kts | 131° |
| 2026-05-06 09:34 | 23.36550 | 88.00293 | 22275 ft | 480 kts | 149° |
| 2026-05-06 09:34 | 23.33335 | 88.01853 | 21547 ft | 468 kts | 166° |
| 2026-05-06 09:34 | 23.30090 | 88.02559 | 20867 ft | 459 kts | 172° |
| 2026-05-06 09:34 | 23.26870 | 88.03142 | 20060 ft | 456 kts | 172° |
| 2026-05-06 09:35 | 23.23631 | 88.03719 | 19279 ft | 451 kts | 172° |
| 2026-05-06 09:35 | 23.20264 | 88.04331 | 18551 ft | 444 kts | 172° |
| 2026-05-06 09:35 | 23.17027 | 88.04931 | 17877 ft | 438 kts | 172° |
| 2026-05-06 09:35 | 23.13807 | 88.05536 | 17213 ft | 431 kts | 171° |
| 2026-05-06 09:36 | 23.10739 | 88.06116 | 16724 ft | 421 kts | 171° |
| 2026-05-06 09:36 | 23.07648 | 88.06702 | 16408 ft | 406 kts | 171° |
| 2026-05-06 09:36 | 23.04715 | 88.07260 | 16141 ft | 391 kts | 171° |
| 2026-05-06 09:36 | 23.01836 | 88.07807 | 15869 ft | 378 kts | 171° |
| 2026-05-06 09:37 | 22.99063 | 88.08332 | 15620 ft | 365 kts | 171° |
| 2026-05-06 09:37 | 22.96505 | 88.08817 | 15403 ft | 353 kts | 171° |
| 2026-05-06 09:37 | 22.93973 | 88.09296 | 15199 ft | 341 kts | 171° |
| 2026-05-06 09:37 | 22.91637 | 88.09737 | 15021 ft | 329 kts | 171° |
| 2026-05-06 09:38 | 22.89401 | 88.10165 | 14859 ft | 318 kts | 169° |
| 2026-05-06 09:38 | 22.87281 | 88.10686 | 14577 ft | 313 kts | 166° |
| 2026-05-06 09:38 | 22.85148 | 88.11287 | 14050 ft | 315 kts | 166° |
| 2026-05-06 09:38 | 22.83051 | 88.11888 | 13562 ft | 316 kts | 166° |
| 2026-05-06 09:39 | 22.80925 | 88.12496 | 13081 ft | 316 kts | 166° |
| 2026-05-06 09:39 | 22.78804 | 88.13100 | 12606 ft | 316 kts | 166° |
| 2026-05-06 09:39 | 22.76697 | 88.13698 | 12237 ft | 312 kts | 166° |
| 2026-05-06 09:39 | 22.74547 | 88.14307 | 11843 ft | 306 kts | 166° |
| 2026-05-06 09:40 | 22.72440 | 88.14902 | 11259 ft | 305 kts | 166° |
| 2026-05-06 09:40 | 22.70307 | 88.15482 | 10742 ft | 306 kts | 167° |
| 2026-05-06 09:40 | 22.66098 | 88.16472 | 10020 ft | 298 kts | 168° |
| 2026-05-06 09:41 | 22.64061 | 88.16946 | 9561 ft | 298 kts | 168° |
| 2026-05-06 09:41 | 22.61988 | 88.17429 | 9076 ft | 298 kts | 168° |
| 2026-05-06 09:41 | 22.59923 | 88.17912 | 8740 ft | 293 kts | 168° |
| 2026-05-06 09:41 | 22.57937 | 88.18377 | 8368 ft | 290 kts | 168° |
| 2026-05-06 09:42 | 22.56033 | 88.19111 | 7894 ft | 290 kts | 147° |
| 2026-05-06 09:42 | 22.54629 | 88.20579 | 7769 ft | 278 kts | 124° |
| 2026-05-06 09:42 | 22.53642 | 88.22341 | 7769 ft | 261 kts | 120° |
| 2026-05-06 09:42 | 22.52742 | 88.24065 | 7764 ft | 246 kts | 120° |
| 2026-05-06 09:43 | 22.51881 | 88.25708 | 7768 ft | 246 kts | 120° |
| 2026-05-06 09:43 | 22.50997 | 88.27371 | 7769 ft | 246 kts | 121° |
| 2026-05-06 09:43 | 22.49985 | 88.28907 | 7752 ft | 245 kts | 141° |
| 2026-05-06 09:43 | 22.48433 | 88.29614 | 7759 ft | 245 kts | 176° |
| 2026-05-06 09:44 | 22.46709 | 88.29417 | 7776 ft | 245 kts | 190° |
| 2026-05-06 09:44 | 22.44992 | 88.29055 | 7772 ft | 245 kts | 190° |
| 2026-05-06 09:44 | 22.43285 | 88.28702 | 7771 ft | 245 kts | 190° |
| 2026-05-06 09:44 | 22.41583 | 88.28366 | 7770 ft | 245 kts | 189° |
| 2026-05-06 09:45 | 22.39882 | 88.28047 | 7769 ft | 245 kts | 186° |
| 2026-05-06 09:45 | 22.38190 | 88.28251 | 7722 ft | 243 kts | 153° |
| 2026-05-06 09:45 | 22.36977 | 88.29485 | 7502 ft | 237 kts | 116° |
| 2026-05-06 09:45 | 22.36685 | 88.31257 | 7180 ft | 235 kts | 81° |
| 2026-05-06 09:46 | 22.37344 | 88.32875 | 6863 ft | 234 kts | 48° |
| 2026-05-06 09:46 | 22.38732 | 88.33832 | 6537 ft | 233 kts | 14° |
| 2026-05-06 09:46 | 22.40414 | 88.34021 | 6213 ft | 231 kts | 6° |
| 2026-05-06 09:46 | 22.42038 | 88.34520 | 5844 ft | 228 kts | 36° |
| 2026-05-06 09:47 | 22.43072 | 88.35854 | 5611 ft | 211 kts | 63° |
| 2026-05-06 09:47 | 22.43714 | 88.37257 | 5240 ft | 204 kts | 66° |
| 2026-05-06 09:47 | 22.44292 | 88.38638 | 4872 ft | 196 kts | 68° |
| 2026-05-06 09:47 | 22.44837 | 88.39965 | 4477 ft | 192 kts | 68° |
| 2026-05-06 09:48 | 22.45372 | 88.41267 | 4142 ft | 189 kts | 68° |
| 2026-05-06 09:48 | 22.46041 | 88.42486 | 3756 ft | 186 kts | 43° |
| 2026-05-06 09:48 | 22.47247 | 88.43031 | 3388 ft | 182 kts | 6° |
| 2026-05-06 09:48 | 22.48539 | 88.43046 | 3001 ft | 179 kts | 0° |
| 2026-05-06 09:49 | 22.49841 | 88.43047 | 2530 ft | 180 kts | 3° |
| 2026-05-06 09:49 | 22.51152 | 88.43120 | 2117 ft | 177 kts | 6° |
| 2026-05-06 09:49 | 22.52404 | 88.43240 | 1983 ft | 161 kts | 7° |
| 2026-05-06 09:49 | 22.53488 | 88.43364 | 1972 ft | 154 kts | 8° |
| 2026-05-06 09:50 | 22.54603 | 88.43498 | 1905 ft | 154 kts | 8° |
| 2026-05-06 09:50 | 22.55688 | 88.43629 | 1696 ft | 152 kts | 8° |
| 2026-05-06 09:50 | 22.56788 | 88.43759 | 1486 ft | 152 kts | 8° |
| 2026-05-06 09:50 | 22.57855 | 88.43885 | 1282 ft | 151 kts | 8° |
| 2026-05-06 09:51 | 22.58905 | 88.44008 | 1082 ft | 150 kts | 8° |
| 2026-05-06 09:51 | 22.59932 | 88.44128 | 885 ft | 150 kts | 8° |
| 2026-05-06 09:51 | 22.60978 | 88.44251 | 683 ft | 149 kts | 8° |
| 2026-05-06 09:51 | 22.62010 | 88.44372 | 484 ft | 148 kts | 8° |
| 2026-05-06 09:52 | 22.63058 | 88.44495 | 283 ft | 148 kts | 8° |
| 2026-05-06 09:52 | 22.64082 | 88.44614 | 88 ft | 145 kts | 10° |
| 2026-05-06 09:52 | 22.65052 | 88.44724 | 26 ft | 126 kts | 5° |
| 2026-05-06 09:52 | 22.65751 | 88.44801 | 22 ft | 76 kts | 5° |
| 2026-05-06 09:53 | 22.66158 | 88.44842 | 22 ft | 45 kts | 6° |
| 2026-05-06 09:53 | 22.66305 | 88.44858 | 21 ft | 8 kts | 5° |
| 2026-05-06 09:53 | 22.66373 | 88.44865 | 22 ft | 11 kts | 5° |
| 2026-05-06 09:53 | 22.66462 | 88.44874 | 22 ft | 13 kts | 6° |
| 2026-05-06 09:54 | 22.66568 | 88.44887 | 23 ft | 15 kts | 5° |
| 2026-05-06 09:54 | 22.66642 | 88.44846 | 25 ft | 13 kts | 238° |
| 2026-05-06 09:54 | 22.66584 | 88.44775 | 24 ft | 12 kts | 227° |
| 2026-05-06 09:54 | 22.66520 | 88.44705 | 24 ft | 12 kts | 213° |
| 2026-05-06 09:55 | 22.66436 | 88.44683 | 24 ft | 12 kts | 185° |
| 2026-05-06 09:55 | 22.66340 | 88.44672 | 22 ft | 14 kts | 185° |
| 2026-05-06 09:55 | 22.66233 | 88.44661 | 22 ft | 14 kts | 186° |
| 2026-05-06 09:55 | 22.66125 | 88.44649 | 22 ft | 14 kts | 185° |
| 2026-05-06 09:56 | 22.66024 | 88.44622 | 23 ft | 14 kts | 211° |
| 2026-05-06 09:56 | 22.65943 | 88.44566 | 24 ft | 13 kts | 213° |
| 2026-05-06 09:56 | 22.65865 | 88.44514 | 25 ft | 12 kts | 205° |
| 2026-05-06 09:56 | 22.65776 | 88.44494 | 25 ft | 12 kts | 186° |
| 2026-05-06 09:57 | 22.65682 | 88.44483 | 25 ft | 13 kts | 187° |
| 2026-05-06 09:57 | 22.65586 | 88.44470 | 26 ft | 14 kts | 186° |
| 2026-05-06 09:57 | 22.65481 | 88.44457 | 26 ft | 15 kts | 186° |
| 2026-05-06 09:57 | 22.65374 | 88.44446 | 28 ft | 15 kts | 186° |
| 2026-05-06 09:58 | 22.65257 | 88.44431 | 28 ft | 16 kts | 186° |
| 2026-05-06 09:58 | 22.65147 | 88.44418 | 28 ft | 11 kts | 194° |
| 2026-05-06 09:58 | 22.65092 | 88.44342 | 28 ft | 13 kts | 246° |
| 2026-05-06 09:58 | 22.65050 | 88.44247 | 29 ft | 13 kts | 230° |
| 2026-05-06 09:59 | 22.64961 | 88.44221 | 28 ft | 13 kts | 185° |
| 2026-05-06 09:59 | 22.64866 | 88.44211 | 28 ft | 12 kts | 186° |
| 2026-05-06 09:59 | 22.64780 | 88.44201 | 27 ft | 12 kts | 186° |
| 2026-05-06 09:59 | 22.64691 | 88.44190 | 26 ft | 12 kts | 185° |
| 2026-05-06 10:00 | 22.64601 | 88.44180 | 25 ft | 12 kts | 186° |
| 2026-05-06 10:00 | 22.64524 | 88.44170 | 25 ft | 7 kts | 186° |
| 2026-05-06 10:00 | 22.64471 | 88.44164 | 25 ft | 7 kts | 185° |
| 2026-05-06 10:00 | 22.64413 | 88.44158 | 23 ft | 8 kts | 186° |
| 2026-05-06 10:01 | 22.64376 | 88.44154 | 23 ft | 5 kts | 186° |
| 2026-05-06 10:01 | 22.64338 | 88.44144 | 22 ft | 5 kts | 220° |
| 2026-05-06 10:01 | 22.64334 | 88.44112 | 23 ft | 3 kts | 281° |
| 2026-05-06 10:01 | 22.64336 | 88.44099 | 23 ft | 0 kts | 280° |
| 2026-05-06 10:02 | 22.64338 | 88.44086 | 23 ft | 3 kts | 278° |
| 2026-05-06 10:02 | 22.64339 | 88.44074 | 24 ft | 0 kts | 276° |